Time;durP1;ratioP1;P1;durP2;ratioP2;P2;SDS_P1;SDS_P2;PMS_P1;PMS_P2;Temp;Humidity;BMP_temperature;BMP_pressure;BME280_temperature;BME280_humidity;BME280_pressure;Samples;Min_cycle;Max_cycle;Signal;HPM_P1;HPM_P2
2021/07/14 00:01:26;;;;;;;0.73;0.60;;;;;;;;;;5013912;28;20121;-90
2021/07/14 00:03:53;;;;;;;0.45;0.45;;;;;;;;;;5015043;28;20049;-88
2021/07/14 00:06:19;;;;;;;0.57;0.57;;;;;;;;;;5014750;28;20033;-88
2021/07/14 00:08:45;;;;;;;11.88;0.80;;;;;;;;;;5014526;28;20133;-90
2021/07/14 00:11:11;;;;;;;0.80;0.50;;;;;;;;;;5014712;28;20049;-89
2021/07/14 00:13:57;;;;;;;0.35;0.35;;;;;;;;;;5014511;28;20109;-90
2021/07/14 00:22:07;;;;;;;2.30;0.57;;;;;;;;;;5014726;28;20057;-89
2021/07/14 00:24:33;;;;;;;0.73;0.40;;;;;;;;;;5014347;28;20049;-89
2021/07/14 00:27:01;;;;;;;0.82;0.73;;;;;;;;;;5013082;28;20058;-88
2021/07/14 00:29:27;;;;;;;1.27;0.70;;;;;;;;;;5014514;28;20018;-89
2021/07/14 00:31:53;;;;;;;0.73;0.70;;;;;;;;;;4994283;28;20431;-89
2021/07/14 00:34:19;;;;;;;0.57;0.57;;;;;;;;;;5025126;28;20030;-89
2021/07/14 00:36:45;;;;;;;0.25;0.25;;;;;;;;;;5005814;28;20034;-89
2021/07/14 00:39:11;;;;;;;0.90;0.35;;;;;;;;;;5012340;28;20025;-89
2021/07/14 00:41:37;;;;;;;0.55;0.50;;;;;;;;;;5014163;28;20025;-89
2021/07/14 00:44:03;;;;;;;0.70;0.65;;;;;;;;;;5013586;28;20026;-89
2021/07/14 00:46:29;;;;;;;0.52;0.38;;;;;;;;;;5006891;28;20026;-88
2021/07/14 00:48:59;;;;;;;0.57;0.50;;;;;;;;;;5011598;28;20489;-91
2021/07/14 00:51:27;;;;;;;0.63;0.47;;;15.70;74.10;;;;;;5010360;28;20495;-89
2021/07/14 00:53:53;;;;;;;0.90;0.50;;;;;;;;;;5012563;28;20026;-89
2021/07/14 00:56:19;;;;;;;0.77;0.40;;;;;;;;;;5014164;28;20432;-89
2021/07/14 00:58:45;;;;;;;0.30;0.30;;;;;;;;;;5012392;28;20498;-89
2021/07/14 01:01:13;;;;;;;0.40;0.40;;;;;;;;;;5000557;28;20443;-90
2021/07/14 01:03:41;;;;;;;3.03;0.98;;;;;;;;;;4997124;28;20480;-89
2021/07/14 01:06:15;;;;;;;3.33;0.43;;;15.70;73.50;;;;;;5011174;28;20409;-89
2021/07/14 01:09:07;;;;;;;1.50;0.60;;;15.60;73.80;;;;;;5011984;28;20065;-89
2021/07/14 01:11:34;;;;;;;0.35;0.32;;;;;;;;;;4993655;28;20085;-88
2021/07/14 01:14:07;;;;;;;0.30;0.30;;;15.50;74.00;;;;;;5012247;28;20026;-89
2021/07/14 01:16:43;;;;;;;0.50;0.50;;;15.40;74.20;;;;;;5011448;28;20038;-90
2021/07/14 01:19:40;;;;;;;2.35;0.95;;;15.30;74.70;;;;;;5013438;28;20023;-89
2021/07/14 01:22:12;;;;;;;0.82;0.40;;;;;;;;;;5012665;28;20569;-89
2021/07/14 01:25:06;;;;;;;0.65;0.60;;;15.30;74.70;;;;;;5014787;28;20054;-89
2021/07/14 01:27:34;;;;;;;3.17;0.88;;;;;;;;;;5013285;28;20454;-89
2021/07/14 01:30:05;;;;;;;0.55;0.55;;;15.20;75.30;;;;;;5012864;28;20486;-88
2021/07/14 01:32:33;;;;;;;0.50;0.50;;;;;;;;;;5012826;28;20095;-89
2021/07/14 01:35:05;;;;;;;0.95;0.55;;;;;;;;;;5009952;28;20045;-89
2021/07/14 01:37:33;;;;;;;0.95;0.50;;;15.20;75.30;;;;;;5013011;28;20034;-88
2021/07/14 01:40:00;;;;;;;0.40;0.40;;;;;;;;;;5001589;28;20023;-90
2021/07/14 01:42:27;;;;;;;0.30;0.30;;;;;;;;;;5014207;28;20032;-90
2021/07/14 01:44:53;;;;;;;;;;;;;;;;;;5011531;28;20503;-89
2021/07/14 01:47:21;;;;;;;0.77;0.68;;;15.10;75.60;;;;;;5012345;28;19916;-90
2021/07/14 01:49:49;;;;;;;0.28;0.28;;;15.20;75.80;;;;;;5012030;28;20049;-90
2021/07/14 01:52:16;;;;;;;;;;;15.10;75.50;;;;;;5013281;28;20034;-89
2021/07/14 01:54:43;;;;;;;3.72;0.90;;;;;;;;;;5012808;28;19912;-89
2021/07/14 01:57:10;;;;;;;1.80;1.42;;;15.20;75.40;;;;;;5012742;28;20021;-90
2021/07/14 01:59:39;;;;;;;1.95;0.57;;;15.30;75.20;;;;;;5010128;28;20026;-89
2021/07/14 02:02:06;;;;;;;0.63;0.50;;;15.30;75.30;;;;;;5011874;28;20062;-89
2021/07/14 02:04:37;;;;;;;5.38;0.82;;;;;;;;;;5010615;28;20060;-89
2021/07/14 02:07:10;;;;;;;2.38;0.50;;;15.30;75.30;;;;;;5006257;28;20056;-90
2021/07/14 02:09:37;;;;;;;0.50;0.50;;;;;;;;;;5006084;28;20085;-89
2021/07/14 02:12:06;;;;;;;4.60;0.60;;;15.20;75.60;;;;;;4997069;28;20060;-89
2021/07/14 02:14:34;;;;;;;0.40;0.40;;;;;;;;;;5010965;28;20026;-89
2021/07/14 02:17:05;;;;;;;3.45;0.63;;;;;;;;;;5020514;28;20034;-89
2021/07/14 02:19:33;;;;;;;0.40;0.32;;;;;;;;;;4996265;28;20026;-88
2021/07/14 02:22:01;;;;;;;3.28;1.90;;;15.40;75.00;;;;;;5005729;28;20029;-89
2021/07/14 02:24:27;;;;;;;2.55;1.25;;;;;;;;;;5006401;28;20045;-89
2021/07/14 02:26:54;;;;;;;1.33;1.10;;;;;;;;;;4993706;28;20034;-90
2021/07/14 02:29:21;;;;;;;0.75;0.63;;;;;;;;;;4992990;28;20030;-89
2021/07/14 02:31:46;;;;;;;1.73;0.68;;;;;;;;;;5009837;28;20486;-89
2021/07/14 02:34:13;;;;;;;0.70;0.50;;;;;;;;;;5012613;28;20057;-89
2021/07/14 02:36:39;;;;;;;1.10;0.60;;;;;;;;;;5012176;28;20036;-89
2021/07/14 02:39:07;;;;;;;0.35;0.35;;;15.30;75.70;;;;;;5012270;28;20025;-90
2021/07/14 02:41:44;;;;;;;0.57;0.47;;;;;;;;;;5010089;28;20030;-89
2021/07/14 02:44:11;;;;;;;0.80;0.45;;;;;;;;;;4992972;28;20022;-89
2021/07/14 02:46:41;;;;;;;0.55;0.52;;;;;;;;;;5010218;28;20053;-90
2021/07/14 02:49:08;;;;;;;0.68;0.68;;;;;;;;;;5012021;28;20026;-89
2021/07/14 02:51:37;;;;;;;1.48;0.57;;;15.40;75.60;;;;;;5012097;28;20038;-89
2021/07/14 02:54:10;;;;;;;1.00;0.52;;;15.40;75.20;;;;;;5012023;28;20030;-88
2021/07/14 02:56:36;;;;;;;0.30;0.30;;;;;;;;;;5012470;28;20109;-88
2021/07/14 02:59:06;;;;;;;0.40;0.40;;;15.40;75.30;;;;;;5012226;28;20061;-89
2021/07/14 03:01:34;;;;;;;0.65;0.60;;;;;;;;;;5012925;28;20026;-88
2021/07/14 03:04:00;;;;;;;1.55;0.88;;;;;;;;;;5016470;28;20022;-89
2021/07/14 03:06:32;;;;;;;0.95;0.77;;;15.30;76.00;;;;;;5015863;28;20062;-91
2021/07/14 03:09:03;;;;;;;0.82;0.50;;;;;;;;;;5014721;28;20113;-89
2021/07/14 03:11:29;;;;;;;0.63;0.63;;;;;;;;;;5014409;28;20033;-90
2021/07/14 03:13:55;;;;;;;0.52;0.47;;;;;;;;;;5015647;28;20092;-89
2021/07/14 03:16:22;;;;;;;0.75;0.43;;;;;;;;;;5014483;28;20053;-89
2021/07/14 03:18:50;;;;;;;3.67;0.80;;;;;;;;;;5005788;28;20040;-88
2021/07/14 03:21:16;;;;;;;;;;;15.60;75.10;;;;;;5003416;28;20026;-90
2021/07/14 03:23:42;;;;;;;5.40;0.67;;;;;;;;;;5014013;28;19951;-87
2021/07/14 03:26:09;;;;;;;0.70;0.43;;;;;;;;;;5015803;28;20030;-89
2021/07/14 03:28:38;;;;;;;0.70;0.50;;;;;;;;;;5030905;28;20526;-89
2021/07/14 03:31:05;;;;;;;1.23;0.68;;;;;;;;;;5015673;28;20069;-89
2021/07/14 03:33:32;;;;;;;0.40;0.40;;;15.70;74.70;;;;;;5015601;28;20026;-89
2021/07/14 03:35:58;;;;;;;13.13;1.42;;;;;;;;;;5015657;28;20080;-90
2021/07/14 03:38:26;;;;;;;1.02;0.93;;;;;;;;;;5015828;28;20053;-89
2021/07/14 03:40:53;;;;;;;0.52;0.50;;;;;;;;;;5014130;28;20029;-89
2021/07/14 03:43:19;;;;;;;0.95;0.60;;;15.70;75.10;;;;;;5015576;28;20096;-88
2021/07/14 03:45:45;;;;;;;1.48;0.77;;;15.70;75.10;;;;;;5015143;28;20048;-89
2021/07/14 03:48:17;;;;;;;1.48;0.55;;;;;;;;;;5015148;28;20037;-89
2021/07/14 03:50:46;;;;;;;4.80;1.27;;;15.80;74.80;;;;;;5013156;28;20061;-89
2021/07/14 03:53:13;;;;;;;1.15;0.68;;;;;;;;;;5030421;28;20041;-88
2021/07/14 03:55:39;;;;;;;0.98;0.50;;;;;;;;;;5014726;28;20030;-88
2021/07/14 03:58:05;;;;;;;0.43;0.40;;;;;;;;;;5014840;28;20049;-88
2021/07/14 04:00:31;;;;;;;0.35;0.30;;;;;;;;;;5011122;28;20052;-89
2021/07/14 04:02:57;;;;;;;1.60;0.90;;;;;;;;;;5015031;28;20018;-89
2021/07/14 04:05:23;;;;;;;1.50;0.80;;;;;;;;;;5015071;28;20022;-87
2021/07/14 04:07:50;;;;;;;1.10;0.77;;;;;;;;;;5014898;28;20038;-88
2021/07/14 04:10:16;;;;;;;0.82;0.50;;;;;;;;;;5009459;28;20446;-88
2021/07/14 04:12:42;;;;;;;0.70;0.47;;;15.60;76.90;;;;;;5003922;28;20034;-89
2021/07/14 04:15:08;;;;;;;3.65;1.02;;;;;;;;;;5010348;28;20491;-88
2021/07/14 04:17:34;;;;;;;1.83;0.70;;;;;;;;;;5014261;28;20403;-87
2021/07/14 04:20:01;;;;;;;4.82;0.98;;;;;;;;;;4995337;28;20022;-89
2021/07/14 04:22:27;;;;;;;1.07;0.63;;;;;;;;;;5026024;28;20037;-88
2021/07/14 04:24:53;;;;;;;1.02;0.80;;;;;;;;;;5029175;28;20756;-88
2021/07/14 04:27:20;;;;;;;0.40;0.40;;;;;;;;;;5013971;28;20025;-87
2021/07/14 04:29:46;;;;;;;3.25;0.60;;;;;;;;;;5026841;28;20077;-89
2021/07/14 04:32:11;;;;;;;1.70;0.95;;;;;;;;;;5007919;28;20648;-88
2021/07/14 04:34:37;;;;;;;1.70;1.55;;;;;;;;;;5013086;28;20026;-87
2021/07/14 04:37:04;;;;;;;1.38;0.80;;;;;;;;;;4998549;28;20407;-88
2021/07/14 04:39:30;;;;;;;0.40;0.40;;;;;;;;;;5001823;28;20080;-87
2021/07/14 04:41:56;;;;;;;0.52;0.50;;;;;;;;;;5008629;28;20149;-88
2021/07/14 04:44:37;;;;;;;1.55;0.70;;;;;;;;;;5013314;28;20030;-87
2021/07/14 04:47:05;;;;;;;2.90;0.90;;;15.40;80.40;;;;;;5012367;28;20041;-87
2021/07/14 04:49:31;;;;;;;4.70;0.85;;;;;;;;;;4996111;28;20022;-86
2021/07/14 04:51:57;;;;;;;0.88;0.55;;;;;;;;;;5002601;28;20080;-88
2021/07/14 04:54:23;;;;;;;0.77;0.50;;;;;;;;;;5005196;28;20706;-87
2021/07/14 04:56:50;;;;;;;0.73;0.73;;;;;;;;;;5008251;28;20526;-87
2021/07/14 04:59:17;;;;;;;3.63;1.17;;;;;;;;;;5011870;28;20114;-86
2021/07/14 05:01:43;;;;;;;2.40;1.85;;;;;;;;;;4994364;28;20823;-87
2021/07/14 05:04:09;;;;;;;1.48;1.02;;;;;;;;;;5007436;28;20017;-88
2021/07/14 05:06:35;;;;;;;1.42;0.65;;;;;;;;;;5004265;28;20030;-88
2021/07/14 05:09:01;;;;;;;0.47;0.43;;;;;;;;;;5013002;28;20368;-89
2021/07/14 05:11:27;;;;;;;0.85;0.55;;;;;;;;;;5012847;28;20045;-87
2021/07/14 05:13:53;;;;;;;0.47;0.47;;;;;;;;;;4993433;28;20026;-87
2021/07/14 05:16:19;;;;;;;0.88;0.70;;;;;;;;;;5008110;28;20037;-87
2021/07/14 05:18:45;;;;;;;0.82;0.73;;;;;;;;;;5027851;28;20514;-88
2021/07/14 05:21:11;;;;;;;0.95;0.70;;;;;;;;;;5011523;28;20033;-87
2021/07/14 05:23:37;;;;;;;1.27;0.70;;;;;;;;;;5011547;28;20078;-88
2021/07/14 05:26:03;;;;;;;1.27;1.13;;;;;;;;;;5009846;28;20025;-87
2021/07/14 05:28:29;;;;;;;0.60;0.50;;;;;;;;;;5010371;28;20041;-87
2021/07/14 05:30:56;;;;;;;0.73;0.57;;;;;;;;;;5008987;28;20065;-89
2021/07/14 05:33:22;;;;;;;1.70;1.15;;;;;;;;;;5008866;28;20459;-87
2021/07/14 05:35:48;;;;;;;1.67;1.38;;;;;;;;;;5010358;28;20042;-88
2021/07/14 05:38:21;;;;;;;1.05;0.63;;;;;;;;;;5027797;28;20022;-87
2021/07/14 05:40:51;;;;;;;1.15;0.68;;;;;;;;;;5012305;28;20084;-87
2021/07/14 05:43:17;;;;;;;1.80;1.70;;;;;;;;;;5011993;28;20026;-86
2021/07/14 05:45:43;;;;;;;1.27;1.00;;;;;;;;;;5012238;28;20065;-88
2021/07/14 05:48:09;;;;;;;1.20;0.60;;;;;;;;;;5012044;28;20121;-87
2021/07/14 05:50:36;;;;;;;0.38;0.38;;;15.50;79.50;;;;;;5009812;28;20053;-88
2021/07/14 05:53:02;;;;;;;1.83;0.80;;;;;;;;;;5011285;28;20034;-87
2021/07/14 05:55:28;;;;;;;0.60;0.50;;;;;;;;;;5009118;28;20709;-87
2021/07/14 05:57:54;;;;;;;0.50;0.50;;;;;;;;;;5009504;28;20033;-87
2021/07/14 06:00:20;;;;;;;0.50;0.45;;;;;;;;;;5009766;28;20037;-88
2021/07/14 06:02:46;;;;;;;1.05;0.77;;;;;;;;;;5011166;28;20018;-88
2021/07/14 06:05:13;;;;;;;0.90;0.50;;;;;;;;;;5010629;28;20405;-86
2021/07/14 06:07:39;;;;;;;3.92;0.50;;;;;;;;;;5008926;28;20084;-90
2021/07/14 06:10:07;;;;;;;1.73;0.70;;;15.60;80.10;;;;;;5007874;28;20065;-88
2021/07/14 06:12:33;;;;;;;2.08;1.23;;;;;;;;;;5009906;28;20096;-86
2021/07/14 06:14:59;;;;;;;1.48;0.50;;;;;;;;;;5009615;28;20022;-89
2021/07/14 06:17:25;;;;;;;0.82;0.50;;;;;;;;;;5012502;28;20040;-88
2021/07/14 06:19:51;;;;;;;1.10;0.60;;;;;;;;;;5011078;28;20022;-90
2021/07/14 06:22:18;;;;;;;2.85;0.63;;;;;;;;;;5003542;28;20428;-89
2021/07/14 06:24:44;;;;;;;0.43;0.43;;;;;;;;;;5001100;28;20570;-90
2021/07/14 06:27:10;;;;;;;0.60;0.50;;;;;;;;;;4998048;28;20034;-88
2021/07/14 06:29:37;;;;;;;0.90;0.60;;;;;;;;;;5026122;28;20030;-89
2021/07/14 06:32:03;;;;;;;0.63;0.50;;;;;;;;;;5026838;28;20065;-89
2021/07/14 06:34:29;;;;;;;0.50;0.50;;;;;;;;;;5012896;28;20048;-89
2021/07/14 06:36:55;;;;;;;0.45;0.40;;;;;;;;;;5012953;28;20463;-89
2021/07/14 06:39:21;;;;;;;1.75;0.52;;;;;;;;;;5015890;28;20030;-87
2021/07/14 06:41:47;;;;;;;1.92;0.60;;;;;;;;;;5013757;28;20030;-90
2021/07/14 06:44:13;;;;;;;0.90;0.50;;;;;;;;;;5010912;28;20026;-89
2021/07/14 06:46:39;;;;;;;0.65;0.65;;;;;;;;;;5017053;28;20018;-89
2021/07/14 06:49:05;;;;;;;0.93;0.55;;;;;;;;;;5016399;28;20030;-90
2021/07/14 06:51:31;;;;;;;1.02;0.57;;;;;;;;;;5015823;28;20022;-85
2021/07/14 06:53:57;;;;;;;0.85;0.43;;;;;;;;;;5014799;28;20034;-89
2021/07/14 06:56:23;;;;;;;1.00;0.50;;;;;;;;;;5015467;28;20503;-89
2021/07/14 06:58:49;;;;;;;0.80;0.60;;;;;;;;;;5015006;28;20080;-89
2021/07/14 07:01:16;;;;;;;0.30;0.30;;;;;;;;;;5015253;28;20566;-88
2021/07/14 07:03:42;;;;;;;0.65;0.47;;;;;;;;;;5016059;28;20026;-90
2021/07/14 07:06:08;;;;;;;0.55;0.45;;;;;;;;;;5015362;28;20037;-90
2021/07/14 07:08:34;;;;;;;2.05;0.85;;;;;;;;;;5015116;28;20037;-89
2021/07/14 07:11:00;;;;;;;0.40;0.40;;;;;;;;;;5014856;28;20050;-89
2021/07/14 07:13:27;;;;;;;0.60;0.32;;;;;;;;;;5014679;28;20437;-88
2021/07/14 07:15:53;;;;;;;0.20;0.20;;;;;;;;;;5015553;28;20029;-88
2021/07/14 07:18:21;;;;;;;0.32;0.32;;;;;;;;;;5015964;28;20041;-89
2021/07/14 07:20:47;;;;;;;0.22;0.22;;;;;;;;;;5013973;28;20033;-89
2021/07/14 07:23:13;;;;;;;0.68;0.50;;;;;;;;;;5014888;28;20064;-85
2021/07/14 07:25:40;;;;;;;0.70;0.45;;;;;;;;;;4999410;28;20036;-83
2021/07/14 07:28:13;;;;;;;2.15;0.60;;;;;;;;;;5019514;28;20060;-83
2021/07/14 07:30:39;;;;;;;0.20;0.20;;;;;;;;;;5004589;28;20092;-83
2021/07/14 07:33:05;;;;;;;0.50;0.40;;;;;;;;;;5007384;28;20031;-84
2021/07/14 07:35:31;;;;;;;0.30;0.30;;;;;;;;;;5008052;28;20117;-84
2021/07/14 07:37:57;;;;;;;0.30;0.30;;;;;;;;;;5005283;28;20113;-84
2021/07/14 07:40:23;;;;;;;0.40;0.40;;;;;;;;;;5003901;28;20565;-85
2021/07/14 07:42:49;;;;;;;0.40;0.30;;;;;;;;;;5021080;28;20041;-85
2021/07/14 07:45:15;;;;;;;0.77;0.40;;;;;;;;;;5011579;28;20029;-91
2021/07/14 07:47:41;;;;;;;0.20;0.20;;;;;;;;;;5026912;28;20172;-90
2021/07/14 07:50:08;;;;;;;0.40;0.40;;;;;;;;;;5010190;28;20399;-90
2021/07/14 07:52:34;;;;;;;0.30;0.27;;;;;;;;;;5011934;28;20044;-89
2021/07/14 07:55:00;;;;;;;0.20;0.20;;;;;;;;;;5043477;23;20307;-95
2021/07/14 07:57:27;;;;;;;0.30;0.30;;;;;;;;;;5080429;28;20017;-96
2021/07/14 07:59:53;;;;;;;0.45;0.45;;;;;;;;;;5068497;28;20040;-93
2021/07/14 08:02:19;;;;;;;0.30;0.30;;;;;;;;;;5066903;28;20516;-87
2021/07/14 08:04:45;;;;;;;0.30;0.20;;;;;;;;;;5064454;28;20013;-92
2021/07/14 08:07:11;;;;;;;0.55;0.38;;;;;;;;;;5066157;28;20389;-81
2021/07/14 08:09:37;;;;;;;0.30;0.30;;;;;;;;;;5063310;28;20024;-92
2021/07/14 08:12:04;;;;;;;0.43;0.20;;;;;;;;;;5061067;28;20060;-85
2021/07/14 08:14:30;;;;;;;0.20;0.20;;;;;;;;;;5066354;28;20032;-90
2021/07/14 08:16:56;;;;;;;0.30;0.30;;;;;;;;;;5060409;28;20033;-87
2021/07/14 08:19:22;;;;;;;0.35;0.35;;;;;;;;;;5065358;28;20070;-94
2021/07/14 08:21:48;;;;;;;0.20;0.20;;;;;;;;;;5055833;28;20033;-88
2021/07/14 08:24:14;;;;;;;0.20;0.20;;;;;;;;;;5054969;28;20063;-84
2021/07/14 08:26:40;;;;;;;0.50;0.50;;;;;;;;;;5061945;28;20692;-88
2021/07/14 08:29:06;;;;;;;0.22;0.22;;;;;;;;;;5061485;28;20077;-91
2021/07/14 08:31:32;;;;;;;0.65;0.30;;;;;;;;;;5052845;28;20036;-91
2021/07/14 08:33:58;;;;;;;0.20;0.20;;;;;;;;;;5059722;28;20035;-87
2021/07/14 08:36:25;;;;;;;0.28;0.28;;;;;;;;;;5057563;28;20410;-88
2021/07/14 08:38:51;;;;;;;0.20;0.20;;;;;;;;;;5061791;28;20036;-87
2021/07/14 08:41:18;;;;;;;0.20;0.20;;;;;;;;;;5064713;28;20035;-89
2021/07/14 08:43:45;;;;;;;0.20;0.20;;;;;;;;;;5058786;28;20314;-86
2021/07/14 08:46:12;;;;;;;0.20;0.20;;;;;;;;;;5057669;28;20041;-86
2021/07/14 08:48:38;;;;;;;0.52;0.25;;;16.30;82.30;;;;;;5054020;28;20108;-88
2021/07/14 08:51:05;;;;;;;1.02;0.43;;;;;;;;;;5053207;28;20067;-87
2021/07/14 08:53:31;;;;;;;0.30;0.30;;;;;;;;;;5058520;28;20039;-85
2021/07/14 08:55:58;;;;;;;0.40;0.30;;;;;;;;;;5059879;28;20056;-87
2021/07/14 08:58:26;;;;;;;0.20;0.20;;;16.30;81.80;;;;;;5052500;28;20017;-88
2021/07/14 09:00:55;;;;;;;0.20;0.20;;;;;;;;;;5052848;28;20115;-86
2021/07/14 09:03:21;;;;;;;0.20;0.20;;;;;;;;;;5057595;28;20090;-83
2021/07/14 09:05:47;;;;;;;1.02;0.30;;;;;;;;;;5051853;28;20025;-86
2021/07/14 09:08:13;;;;;;;0.20;0.20;;;;;;;;;;5064464;28;20039;-89
2021/07/14 09:10:40;;;;;;;0.20;0.20;;;16.40;82.20;;;;;;5056029;28;20036;-87
2021/07/14 09:13:08;;;;;;;0.40;0.40;;;;;;;;;;5064819;28;20040;-91
2021/07/14 09:15:39;;;;;;;0.43;0.22;;;;;;;;;;5057154;28;20039;-93
2021/07/14 09:18:05;;;;;;;0.40;0.40;;;;;;;;;;5064976;28;20075;-90
2021/07/14 09:20:32;;;;;;;0.45;0.38;;;;;;;;;;5054067;28;20033;-84
2021/07/14 09:23:03;;;;;;;0.47;0.32;;;;;;;;;;5060927;28;20047;-88
2021/07/14 09:25:30;;;;;;;0.40;0.30;;;;;;;;;;5055379;28;20056;-87
2021/07/14 09:27:57;;;;;;;0.32;0.30;;;;;;;;;;5062206;28;20460;-82
2021/07/14 09:30:24;;;;;;;;;;;;;;;;;;5046729;28;20444;-81
2021/07/14 09:32:58;;;;;;;1.17;0.57;;;16.80;81.90;;;;;;5063438;28;19931;-81
2021/07/14 09:35:47;;;;;;;3.65;0.93;;;;;;;;;;5058840;28;20154;-85
2021/07/14 09:38:17;;;;;;;0.63;0.50;;;16.60;85.30;;;;;;5057660;28;20113;-90
2021/07/14 09:40:45;;;;;;;1.02;0.60;;;;;;;;;;5057050;28;20052;-90
2021/07/14 09:43:19;;;;;;;1.73;1.15;;;16.80;82.70;;;;;;5060275;28;20029;-88
2021/07/14 09:45:51;;;;;;;2.25;0.95;;;;;;;;;;5057682;28;20102;-90
2021/07/14 09:48:19;;;;;;;1.38;0.85;;;16.90;82.10;;;;;;5054632;28;20043;-89
2021/07/14 09:51:09;;;;;;;1.25;0.85;;;;;;;;;;5052576;28;20021;-86
2021/07/14 09:53:35;;;;;;;1.75;0.98;;;;;;;;;;5053695;28;20032;-81
2021/07/14 09:56:10;;;;;;;1.88;0.80;;;;;;;;;;5056293;28;20068;-87
2021/07/14 09:58:36;;;;;;;2.05;0.70;;;;;;;;;;5057970;28;20401;-82
2021/07/14 10:01:06;;;;;;;1.48;1.10;;;;;;;;;;5053765;28;20104;-82
2021/07/14 10:03:33;;;;;;;1.25;0.90;;;;;;;;;;5060089;28;20025;-81
2021/07/14 10:06:00;;;;;;;1.63;0.80;;;16.90;82.20;;;;;;5055702;28;20032;-81
2021/07/14 10:08:26;;;;;;;2.08;0.98;;;;;;;;;;5041508;28;20079;-85
2021/07/14 10:11:06;;;;;;;1.40;1.10;;;;;;;;;;5048244;28;20543;-82
2021/07/14 10:13:32;;;;;;;1.45;1.02;;;;;;;;;;5056220;28;20032;-80
2021/07/14 10:16:02;;;;;;;2.38;0.90;;;;;;;;;;5052572;28;20025;-81
2021/07/14 10:18:28;;;;;;;0.95;0.85;;;;;;;;;;5050438;28;20043;-82
2021/07/14 10:20:54;;;;;;;0.47;0.40;;;;;;;;;;5045842;28;20053;-82
2021/07/14 10:23:22;;;;;;;0.30;0.30;;;17.20;79.90;;;;;;5053101;28;20654;-81
2021/07/14 10:25:48;;;;;;;0.77;0.50;;;;;;;;;;5057649;28;20024;-82
2021/07/14 10:28:19;;;;;;;0.40;0.40;;;;;;;;;;5055125;28;20111;-81
2021/07/14 10:30:47;;;;;;;0.30;0.30;;;;;;;;;;5056626;28;20024;-81
2021/07/14 10:33:16;;;;;;;0.25;0.25;;;17.40;79.00;;;;;;5059308;28;20029;-82
2021/07/14 10:35:44;;;;;;;0.20;0.20;;;;;;;;;;5059917;28;20039;-80
2021/07/14 10:38:20;;;;;;;0.30;0.30;;;17.60;79.20;;;;;;5059244;28;20036;-81
2021/07/14 10:40:47;;;;;;;1.33;0.82;;;17.70;79.80;;;;;;5052348;28;20044;-81
2021/07/14 10:43:17;;;;;;;;;;;17.70;75.80;;;;;;5053461;28;20025;-81
2021/07/14 10:45:43;;;;;;;0.60;0.57;;;;;;;;;;5058783;28;19912;-82
2021/07/14 10:48:12;;;;;;;0.60;0.45;;;;;;;;;;5048626;28;20037;-81
2021/07/14 10:50:39;;;;;;;0.75;0.52;;;17.70;78.10;;;;;;5053615;28;20033;-82
2021/07/14 10:53:05;;;;;;;0.60;0.45;;;;;;;;;;5062586;28;20028;-81
2021/07/14 10:55:31;;;;;;;0.90;0.70;;;;;;;;;;5057323;28;20052;-81
2021/07/14 10:57:57;;;;;;;1.33;0.80;;;;;;;;;;5059056;28;20025;-81
2021/07/14 11:00:23;;;;;;;1.35;0.55;;;;;;;;;;5050395;28;20059;-82
2021/07/14 11:02:51;;;;;;;0.85;0.70;;;;;;;;;;5058971;28;20029;-81
2021/07/14 11:05:31;;;;;;;0.80;0.60;;;;;;;;;;5050811;28;20025;-82
2021/07/14 11:07:57;;;;;;;0.90;0.73;;;;;;;;;;5059578;28;20119;-81
2021/07/14 11:10:28;;;;;;;1.25;0.80;;;;;;;;;;5050505;28;20055;-81
2021/07/14 11:12:56;;;;;;;0.63;0.57;;;;;;;;;;5051872;28;20041;-82
2021/07/14 11:15:35;;;;;;;1.50;0.90;;;;;;;;;;5063860;28;20115;-82
2021/07/14 11:18:30;;;;;;;1.00;0.68;;;18.10;76.80;;;;;;5051681;28;20021;-80
2021/07/14 11:20:59;;;;;;;3.25;1.45;;;;;;;;;;5057181;28;20029;-81
2021/07/14 11:23:26;;;;;;;1.23;0.70;;;;;;;;;;5063290;28;20517;-82
2021/07/14 11:25:56;;;;;;;3.55;0.57;;;;;;;;;;5060580;28;20033;-82
2021/07/14 11:28:25;;;;;;;0.80;0.75;;;;;;;;;;5061140;28;20540;-82
2021/07/14 11:30:56;;;;;;;1.70;0.90;;;;;;;;;;5058217;28;20028;-82
2021/07/14 11:33:24;;;;;;;0.85;0.70;;;;;;;;;;5051228;28;20065;-82
2021/07/14 11:35:56;;;;;;;2.08;0.70;;;18.30;76.00;;;;;;5064697;28;20039;-83
2021/07/14 11:38:33;;;;;;;1.27;1.05;;;;;;;;;;5053617;28;20044;-81
2021/07/14 11:41:00;;;;;;;1.75;0.70;;;;;;;;;;5056566;28;20031;-81
2021/07/14 11:43:29;;;;;;;1.63;0.88;;;18.30;75.90;;;;;;5061135;28;20473;-81
2021/07/14 11:46:06;;;;;;;1.13;0.60;;;;;;;;;;5053191;28;20025;-83
2021/07/14 11:48:33;;;;;;;2.08;0.80;;;;;;;;;;5066190;28;20051;-82
2021/07/14 11:51:01;;;;;;;1.33;0.75;;;;;;;;;;5053514;28;20055;-82
2021/07/14 11:53:27;;;;;;;1.40;0.82;;;;;;;;;;5062953;28;20033;-81
2021/07/14 11:56:09;;;;;;;0.95;0.70;;;18.30;77.10;;;;;;5058264;28;20499;-82
2021/07/14 11:58:46;;;;;;;1.67;0.95;;;18.30;76.60;;;;;;5057168;28;20092;-82
2021/07/14 12:01:17;;;;;;;0.85;0.60;;;18.10;77.60;;;;;;5054542;28;20032;-83
2021/07/14 12:04:02;;;;;;;1.73;1.42;;;;;;;;;;5059091;28;20436;-82
2021/07/14 12:06:34;;;;;;;1.13;0.70;;;18.10;77.60;;;;;;5057394;28;20112;-83
2021/07/14 12:09:00;;;;;;;1.30;0.88;;;;;;;;;;5047433;28;20091;-82
2021/07/14 12:11:26;;;;;;;2.58;0.82;;;;;;;;;;5055545;28;20040;-82
2021/07/14 12:13:52;;;;;;;0.88;0.68;;;;;;;;;;5048586;28;20034;-88
2021/07/14 12:16:28;;;;;;;0.93;0.65;;;;;;;;;;5066945;28;20374;-83
2021/07/14 12:18:54;;;;;;;1.10;0.90;;;;;;;;;;5059341;28;20024;-83
2021/07/14 12:21:33;;;;;;;0.95;0.60;;;;;;;;;;5054305;28;20032;-83
2021/07/14 12:23:59;;;;;;;0.35;0.32;;;;;;;;;;5055330;28;20029;-82
2021/07/14 12:26:25;;;;;;;0.90;0.45;;;;;;;;;;5047212;28;20714;-82
2021/07/14 12:28:51;;;;;;;0.60;0.50;;;;;;;;;;5051879;28;20032;-84
2021/07/14 12:31:21;;;;;;;0.65;0.47;;;;;;;;;;5054178;28;20045;-83
2021/07/14 12:33:53;;;;;;;1.27;0.52;;;18.60;75.10;;;;;;5053468;28;20179;-83
2021/07/14 12:36:20;;;;;;;2.63;0.57;;;;;;;;;;5059571;28;20112;-83
2021/07/14 12:38:53;;;;;;;0.47;0.40;;;;;;;;;;5055550;28;20025;-83
2021/07/14 12:41:19;;;;;;;0.95;0.50;;;;;;;;;;5049975;28;20500;-82
2021/07/14 12:43:45;;;;;;;1.95;1.13;;;;;;;;;;5052790;28;20120;-83
2021/07/14 12:46:23;;;;;;;0.30;0.30;;;;;;;;;;5051526;28;20103;-83
2021/07/14 12:48:49;;;;;;;0.32;0.32;;;;;;;;;;5049463;28;20116;-82
2021/07/14 12:51:15;;;;;;;0.35;0.22;;;;;;;;;;5048454;28;20188;-84
2021/07/14 12:53:41;;;;;;;0.22;0.20;;;;;;;;;;5054280;28;20515;-84
2021/07/14 12:56:07;;;;;;;0.17;0.17;;;;;;;;;;5060677;28;20153;-83
2021/07/14 12:58:34;;;;;;;0.57;0.35;;;;;;;;;;5057859;28;20048;-83
2021/07/14 13:01:04;;;;;;;0.43;0.32;;;;;;;;;;5056145;28;20068;-82
2021/07/14 13:03:31;;;;;;;0.20;0.20;;;18.30;76.90;;;;;;5060397;28;20040;-83
2021/07/14 13:05:58;;;;;;;0.55;0.30;;;;;;;;;;5058161;28;20070;-82
2021/07/14 13:08:25;;;;;;;0.13;0.13;;;;;;;;;;5053201;28;20040;-83
2021/07/14 13:10:58;;;;;;;0.90;0.38;;;;;;;;;;5051484;28;20043;-83
2021/07/14 13:13:26;;;;;;;0.52;0.30;;;;;;;;;;5054352;28;20106;-83
2021/07/14 13:15:51;;;;;;;;;;;;;;;;;;5059234;28;20021;-82
2021/07/14 13:18:18;;;;;;;0.22;0.20;;;;;;;;;;5052602;28;19919;-83
2021/07/14 13:20:47;;;;;;;0.93;0.45;;;;;;;;;;5053331;28;20017;-86
2021/07/14 13:23:13;;;;;;;0.40;0.32;;;;;;;;;;5058757;28;20210;-86
2021/07/14 13:25:39;;;;;;;0.60;0.50;;;;;;;;;;5061012;28;20028;-87
2021/07/14 13:28:22;;;;;;;0.30;0.30;;;;;;;;;;5050872;28;20044;-82
2021/07/14 13:30:48;;;;;;;0.47;0.35;;;;;;;;;;5053412;28;21060;-82
2021/07/14 13:33:32;;;;;;;0.70;0.40;;;;;;;;;;5057905;28;20036;-82
2021/07/14 13:36:00;;;;;;;0.40;0.35;;;18.10;77.60;;;;;;5063720;28;20033;-82
2021/07/14 13:38:35;;;;;;;0.30;0.30;;;;;;;;;;5050922;28;20025;-82
2021/07/14 13:41:01;;;;;;;1.40;0.55;;;;;;;;;;5051280;28;20484;-82
2021/07/14 13:43:43;;;;;;;0.32;0.30;;;17.90;78.20;;;;;;5058264;28;20634;-82
2021/07/14 13:46:11;;;;;;;0.93;0.60;;;;;;;;;;5051448;28;20037;-82
2021/07/14 13:48:37;;;;;;;0.43;0.40;;;;;;;;;;5056230;28;20021;-82
2021/07/14 13:51:05;;;;;;;1.15;0.50;;;;;;;;;;5053998;28;20047;-83
2021/07/14 13:53:34;;;;;;;1.27;0.70;;;;;;;;;;5065925;28;20389;-82
2021/07/14 13:56:06;;;;;;;0.68;0.40;;;;;;;;;;5056383;28;20060;-82
2021/07/14 13:58:33;;;;;;;0.95;0.45;;;;;;;;;;5048825;28;20056;-81
2021/07/14 14:00:59;;;;;;;0.70;0.50;;;;;;;;;;5046712;28;20025;-82
2021/07/14 14:03:25;;;;;;;1.00;0.60;;;;;;;;;;5048415;28;20065;-82
2021/07/14 14:06:04;;;;;;;1.95;0.70;;;;;;;;;;5063016;28;21258;-82
2021/07/14 14:08:30;;;;;;;0.68;0.63;;;;;;;;;;5049832;28;20064;-82
2021/07/14 14:10:56;;;;;;;0.35;0.32;;;;;;;;;;5053462;28;20044;-83
2021/07/14 14:13:32;;;;;;;1.35;0.40;;;;;;;;;;5060413;28;20586;-83
2021/07/14 14:15:58;;;;;;;0.73;0.65;;;;;;;;;;5050853;28;20021;-82
2021/07/14 14:18:24;;;;;;;0.75;0.50;;;;;;;;;;5047262;28;20067;-82
2021/07/14 14:20:50;;;;;;;0.73;0.60;;;;;;;;;;5053654;28;20021;-82
2021/07/14 14:23:17;;;;;;;0.70;0.60;;;;;;;;;;5058431;28;20029;-83
2021/07/14 14:25:49;;;;;;;1.08;0.70;;;;;;;;;;5054210;28;20033;-82
2021/07/14 14:28:15;;;;;;;0.57;0.57;;;;;;;;;;5053730;28;20032;-82
2021/07/14 14:30:43;;;;;;;1.65;0.52;;;;;;;;;;5047284;28;20375;-81
2021/07/14 14:33:09;;;;;;;1.23;0.80;;;;;;;;;;5048411;28;20032;-83
2021/07/14 14:35:37;;;;;;;1.15;0.93;;;;;;;;;;5050942;28;20036;-82